createdAt,value
2019-05-29T00:02:14.181Z,55.40
2019-05-29T00:07:18.485Z,54.63
2019-05-29T00:12:22.265Z,55.80
2019-05-29T00:17:25.838Z,53.87
2019-05-29T00:22:29.772Z,53.40
2019-05-29T00:27:33.489Z,54.53
2019-05-29T00:32:37.324Z,54.33
2019-05-29T00:37:41.210Z,54.33
2019-05-29T00:42:44.814Z,53.63
2019-05-29T00:47:48.355Z,54.27
2019-05-29T00:52:51.926Z,55.07
2019-05-29T00:57:55.711Z,55.13
2019-05-29T01:02:59.312Z,54.80
2019-05-29T01:08:02.986Z,54.97
2019-05-29T01:13:06.624Z,53.47
2019-05-29T01:18:11.622Z,54.27
2019-05-29T01:23:16.245Z,53.87
2019-05-29T01:28:21.016Z,54.57
2019-05-29T01:33:25.097Z,53.57
2019-05-29T01:38:28.736Z,53.40
2019-05-29T01:43:32.354Z,53.57
2019-05-29T01:48:35.974Z,53.03
2019-05-29T01:53:39.681Z,53.43
2019-05-29T01:58:43.170Z,52.67
2019-05-29T02:03:47.170Z,52.30
2019-05-29T02:08:50.806Z,52.83
2019-05-29T02:13:54.604Z,51.83
2019-05-29T02:18:58.169Z,53.53
2019-05-29T02:24:01.805Z,53.33
2019-05-29T02:29:05.427Z,52.77
2019-05-29T02:34:09.222Z,52.33
2019-05-29T02:39:12.974Z,54.37
2019-05-29T02:44:16.678Z,53.60
2019-05-29T02:49:21.482Z,53.50
2019-05-29T02:54:27.016Z,54.80
2019-05-29T02:59:32.100Z,55.97
2019-05-29T03:04:36.290Z,52.87
2019-05-29T03:09:40.421Z,53.63
2019-05-29T03:14:44.081Z,53.63
2019-05-29T03:19:47.753Z,51.63
2019-05-29T03:24:51.390Z,51.27
2019-05-29T03:29:54.966Z,49.93
2019-05-29T03:34:58.554Z,49.60
2019-05-29T03:40:02.151Z,48.67
2019-05-29T03:45:06.906Z,48.57
2019-05-29T03:50:15.459Z,47.70
2019-05-29T03:55:16.103Z,48.67
2019-05-29T04:00:20.239Z,47.87
2019-05-29T04:05:23.947Z,47.90
2019-05-29T04:10:32.929Z,47.03
2019-05-29T04:15:38.656Z,47.03
2019-05-29T04:20:44.347Z,47.67
2019-05-29T04:25:51.015Z,48.13
2019-05-29T04:30:54.558Z,47.88
2019-05-29T04:35:58.226Z,48.07
2019-05-29T04:41:02.162Z,47.80
2019-05-29T04:46:05.741Z,47.30
2019-05-29T04:51:09.408Z,47.03
2019-05-29T04:56:13.051Z,46.50
2019-05-29T05:01:16.720Z,46.90
2019-05-29T05:06:20.320Z,47.03
2019-05-29T05:11:23.927Z,46.97
2019-05-29T05:16:27.502Z,46.13
2019-05-29T05:21:31.948Z,45.70
2019-05-29T05:26:36.297Z,46.53
2019-05-29T05:31:40.798Z,49.93
2019-05-29T05:36:44.540Z,53.27
2019-05-29T05:41:48.128Z,59.00
2019-05-29T05:46:51.835Z,46.70
2019-05-29T05:51:55.532Z,48.43
2019-05-29T05:56:59.116Z,47.07
2019-05-29T06:02:03.094Z,46.23
2019-05-29T06:07:06.714Z,46.30
2019-05-29T06:12:10.309Z,46.60
2019-05-29T06:17:14.218Z,46.57
2019-05-29T06:22:17.844Z,48.10
2019-05-29T06:27:21.549Z,47.20
2019-05-29T06:32:25.109Z,52.80
2019-05-29T06:37:28.704Z,47.30
2019-05-29T06:42:33.517Z,52.17
2019-05-29T06:47:38.583Z,51.60
2019-05-29T06:52:43.510Z,48.10
2019-05-29T06:57:48.327Z,47.20
2019-05-29T07:02:52.126Z,46.73
2019-05-29T07:07:55.795Z,47.33
2019-05-29T07:12:59.342Z,48.10
2019-05-29T07:18:03.558Z,47.40
2019-05-29T07:23:07.225Z,48.97
2019-05-29T07:28:10.952Z,48.23
2019-05-29T07:33:14.558Z,48.60
2019-05-29T07:38:19.213Z,48.77
2019-05-29T07:43:23.060Z,49.33
2019-05-29T07:48:26.826Z,48.73
2019-05-29T07:53:33.619Z,49.07
2019-05-29T07:58:35.871Z,49.00
2019-05-29T08:03:41.093Z,48.93
2019-05-29T08:08:45.271Z,50.50
2019-05-29T08:13:50.014Z,50.43
2019-05-29T08:18:53.831Z,51.23
2019-05-29T08:23:57.386Z,50.03
2019-05-29T08:29:01.085Z,49.87
2019-05-29T08:34:05.058Z,50.40
2019-05-29T08:39:08.919Z,50.43
2019-05-29T08:44:12.567Z,49.97
2019-05-29T08:49:16.190Z,51.10
2019-05-29T08:54:23.905Z,49.37
2019-05-29T08:59:25.141Z,50.30
2019-05-29T09:04:29.146Z,51.13
2019-05-29T09:09:32.970Z,49.70
2019-05-29T09:14:36.581Z,50.13
2019-05-29T09:19:40.155Z,50.67
2019-05-29T09:24:44.079Z,49.80
2019-05-29T09:29:48.118Z,50.97
2019-05-29T09:34:51.764Z,50.53
2019-05-29T09:39:55.442Z,51.67
2019-05-29T09:44:59.106Z,50.73
2019-05-29T09:50:03.156Z,49.97
2019-05-29T09:55:07.530Z,49.50
2019-05-29T10:00:11.971Z,49.83
2019-05-29T10:05:16.008Z,50.63
2019-05-29T10:10:21.430Z,50.10
2019-05-29T10:15:25.298Z,51.93
2019-05-29T10:20:30.573Z,51.13
2019-05-29T10:25:34.143Z,50.45
2019-05-29T10:30:37.906Z,50.17
2019-05-29T10:35:42.575Z,50.33
2019-05-29T10:40:56.808Z,50.53
2019-05-29T10:45:52.051Z,50.98
2019-05-29T10:50:55.871Z,50.55
2019-05-29T10:55:59.465Z,50.70
2019-05-29T11:01:03.429Z,51.82
2019-05-29T11:06:07.118Z,50.88
2019-05-29T11:11:10.671Z,50.70
2019-05-29T11:16:14.333Z,50.38
2019-05-29T11:21:18.167Z,50.87
2019-05-29T11:26:21.810Z,51.55
2019-05-29T11:31:25.626Z,50.12
2019-05-29T11:36:29.480Z,50.65
2019-05-29T11:41:33.135Z,50.90
2019-05-29T11:46:36.806Z,50.65
2019-05-29T11:51:44.080Z,51.08
2019-05-29T11:56:45.773Z,50.92
2019-05-29T12:01:50.885Z,50.60
2019-05-29T12:06:55.385Z,51.50
2019-05-29T12:12:00.345Z,50.78
2019-05-29T12:17:04.283Z,51.85
2019-05-29T12:22:07.976Z,51.13
2019-05-29T12:27:11.736Z,51.23
2019-05-29T12:32:15.495Z,50.52
2019-05-29T12:37:19.179Z,51.13
2019-05-29T12:42:22.777Z,51.75
2019-05-29T12:47:26.475Z,51.05
2019-05-29T12:52:30.127Z,51.05
2019-05-29T12:57:33.772Z,51.88
2019-05-29T13:02:37.586Z,51.37
2019-05-29T13:07:42.099Z,51.02
2019-05-29T13:12:45.887Z,51.58
2019-05-29T13:17:49.515Z,54.15
2019-05-29T13:22:53.229Z,50.35
2019-05-29T13:27:59.357Z,50.17
2019-05-29T13:33:03.631Z,50.78
2019-05-29T13:38:07.778Z,52.05
2019-05-29T13:43:15.387Z,50.30
2019-05-29T13:48:16.686Z,50.17
2019-05-29T13:53:20.270Z,50.38
2019-05-29T13:58:24.075Z,51.05
2019-05-29T14:03:27.711Z,51.58
2019-05-29T14:08:31.387Z,51.75
2019-05-29T14:13:35.014Z,50.67
2019-05-29T14:18:38.757Z,51.77
2019-05-29T14:23:42.406Z,50.28
2019-05-29T14:28:46.003Z,50.52
2019-05-29T14:33:49.638Z,50.58
2019-05-29T14:38:53.528Z,50.80
2019-05-29T14:43:57.070Z,51.37
2019-05-29T14:49:02.185Z,51.42
2019-05-29T14:54:06.854Z,50.38
2019-05-29T14:59:11.107Z,51.02
2019-05-29T15:04:14.904Z,51.65
2019-05-29T15:09:18.595Z,50.92
2019-05-29T15:14:22.283Z,50.43
2019-05-29T15:19:25.978Z,50.88
2019-05-29T15:24:29.560Z,51.50
2019-05-29T15:29:33.255Z,51.10
2019-05-29T15:34:36.920Z,50.70
2019-05-29T15:39:40.499Z,51.20
2019-05-29T15:44:44.459Z,50.38
2019-05-29T15:49:48.283Z,50.45
2019-05-29T15:54:51.856Z,50.55
2019-05-29T15:59:55.539Z,50.88
2019-05-29T16:04:59.252Z,51.08
2019-05-29T16:10:03.080Z,51.80
2019-05-29T16:15:09.106Z,50.90
2019-05-29T16:20:14.405Z,50.96
2019-05-29T16:25:19.117Z,50.78
2019-05-29T16:30:22.920Z,51.33
2019-05-29T16:35:26.490Z,50.85
2019-05-29T16:40:31.115Z,51.70
2019-05-29T16:45:34.751Z,50.08
2019-05-29T16:50:38.974Z,49.90
2019-05-29T16:55:53.437Z,49.48
2019-05-29T17:00:48.053Z,51.58
2019-05-29T17:05:51.674Z,50.83
2019-05-29T17:10:55.278Z,51.25
2019-05-29T17:15:58.883Z,50.65
2019-05-29T17:21:02.721Z,50.98
2019-05-29T17:26:10.831Z,51.37
2019-05-29T17:31:11.745Z,50.83
2019-05-29T17:36:16.756Z,51.53
2019-05-29T17:41:21.191Z,50.90
2019-05-29T17:46:25.934Z,50.58
2019-05-29T17:51:29.713Z,50.70
2019-05-29T17:56:36.550Z,51.68
2019-05-29T18:01:38.743Z,51.60
2019-05-29T18:06:42.475Z,50.83
2019-05-29T18:11:47.491Z,50.92
2019-05-29T18:16:51.489Z,51.13
2019-05-29T18:21:54.986Z,51.08
2019-05-29T18:26:59.303Z,51.00
2019-05-29T18:32:04.140Z,52.23
2019-05-29T18:37:07.885Z,53.87
2019-05-29T18:42:11.523Z,54.83
2019-05-29T18:47:15.223Z,60.20
2019-05-29T18:52:19.242Z,57.00
2019-05-29T18:57:22.976Z,53.73
2019-05-29T19:02:27.492Z,54.03
2019-05-29T19:07:31.793Z,59.55
2019-05-29T19:12:35.900Z,57.40
2019-05-29T19:17:40.238Z,70.33
2019-05-29T19:22:44.381Z,54.17
2019-05-29T19:27:48.388Z,49.93
2019-05-29T19:32:52.843Z,49.63
2019-05-29T19:37:56.552Z,48.57
2019-05-29T19:43:00.108Z,49.27
2019-05-29T19:48:03.881Z,49.17
2019-05-29T19:53:07.551Z,51.13
2019-05-29T19:58:11.338Z,51.57
2019-05-29T20:03:15.012Z,55.10
2019-05-29T20:08:18.657Z,51.30
2019-05-29T20:13:22.226Z,51.17
2019-05-29T20:18:26.026Z,53.27
2019-05-29T20:23:30.552Z,51.65
2019-05-29T20:28:34.280Z,51.50
2019-05-29T20:33:38.682Z,51.87
2019-05-29T20:38:42.270Z,50.13
2019-05-29T20:43:45.950Z,50.43
2019-05-29T20:48:49.657Z,51.70
2019-05-29T20:53:53.218Z,52.43
2019-05-29T20:58:56.890Z,52.70
2019-05-29T21:04:00.594Z,50.90
2019-05-29T21:09:06.103Z,50.80
2019-05-29T21:14:09.810Z,50.53
2019-05-29T21:19:13.470Z,49.60
2019-05-29T21:24:17.018Z,50.73
2019-05-29T21:29:20.702Z,50.43
2019-05-29T21:34:24.325Z,50.67
2019-05-29T21:39:28.034Z,49.43
2019-05-29T21:44:32.279Z,51.03
2019-05-29T21:49:37.179Z,48.47
2019-05-29T21:54:41.453Z,49.88
2019-05-29T21:59:45.932Z,49.47
2019-05-29T22:04:49.700Z,49.63
2019-05-29T22:09:54.479Z,49.03
2019-05-29T22:14:58.966Z,52.53
2019-05-29T22:20:03.268Z,58.30
2019-05-29T22:25:08.114Z,50.52
2019-05-29T22:30:12.969Z,49.25
2019-05-29T22:35:16.985Z,49.87
2019-05-29T22:40:20.639Z,49.85
2019-05-29T22:45:24.365Z,50.73
2019-05-29T22:50:28.034Z,50.83
2019-05-29T22:55:31.974Z,50.10
2019-05-29T23:00:35.668Z,49.67
2019-05-29T23:05:39.326Z,49.20
2019-05-29T23:10:43.041Z,48.30
2019-05-29T23:15:46.619Z,48.00
2019-05-29T23:20:50.277Z,47.90
2019-05-29T23:25:54.536Z,47.93
2019-05-29T23:30:58.778Z,47.43
2019-05-29T23:36:03.252Z,47.30
2019-05-29T23:41:06.938Z,48.93
2019-05-29T23:46:10.849Z,48.97
2019-05-29T23:51:14.434Z,50.07
2019-05-29T23:56:18.021Z,49.50
